sensor_id;sensor_type;location;lat;lon;timestamp;pressure;altitude;pressure_sealevel;temperature;humidity
11912;BME280;6016;41.928;25.556;2023-02-02T00:01:09;99155.25;;;5.37;60.73
11912;BME280;6016;41.928;25.556;2023-02-02T00:03:37;99045.53;;;5.10;67.80
11912;BME280;6016;41.928;25.556;2023-02-02T00:06:04;99108.75;;;5.54;67.32
11912;BME280;6016;41.928;25.556;2023-02-02T00:08:31;99007.78;;;5.01;68.54
11912;BME280;6016;41.928;25.556;2023-02-02T00:10:58;99135.69;;;5.93;63.48
11912;BME280;6016;41.928;25.556;2023-02-02T00:13:25;99053.97;;;5.39;65.16
11912;BME280;6016;41.928;25.556;2023-02-02T00:15:52;98988.25;;;5.06;60.99
11912;BME280;6016;41.928;25.556;2023-02-02T00:18:18;99139.13;;;6.07;57.72
11912;BME280;6016;41.928;25.556;2023-02-02T00:20:47;99141.53;;;6.10;58.46
11912;BME280;6016;41.928;25.556;2023-02-02T00:23:14;99143.88;;;5.88;59.63
11912;BME280;6016;41.928;25.556;2023-02-02T00:25:41;99128.75;;;5.55;60.81
11912;BME280;6016;41.928;25.556;2023-02-02T00:28:08;99130.13;;;5.47;64.96
11912;BME280;6016;41.928;25.556;2023-02-02T00:30:35;99124.13;;;5.58;65.52
11912;BME280;6016;41.928;25.556;2023-02-02T00:33:02;99113.56;;;5.60;60.97
11912;BME280;6016;41.928;25.556;2023-02-02T00:35:28;99131.25;;;5.56;63.30
11912;BME280;6016;41.928;25.556;2023-02-02T00:37:56;99127.88;;;5.67;60.37
11912;BME280;6016;41.928;25.556;2023-02-02T00:40:23;99003.19;;;4.91;56.90
11912;BME280;6016;41.928;25.556;2023-02-02T00:42:50;99138.75;;;5.74;56.40
11912;BME280;6016;41.928;25.556;2023-02-02T00:45:17;99115.78;;;5.53;56.18
11912;BME280;6016;41.928;25.556;2023-02-02T00:47:44;99144.22;;;5.71;59.61
11912;BME280;6016;41.928;25.556;2023-02-02T00:50:13;99133.78;;;5.45;58.45
11912;BME280;6016;41.928;25.556;2023-02-02T00:52:40;99151.22;;;4.92;65.32
11912;BME280;6016;41.928;25.556;2023-02-02T00:55:10;99146.25;;;5.28;57.66
11912;BME280;6016;41.928;25.556;2023-02-02T00:57:38;99103.34;;;4.92;62.08
11912;BME280;6016;41.928;25.556;2023-02-02T01:00:07;99143.09;;;5.36;57.53
11912;BME280;6016;41.928;25.556;2023-02-02T01:02:35;99137.13;;;4.95;60.48
11912;BME280;6016;41.928;25.556;2023-02-02T01:05:02;99064.81;;;4.42;60.60
11912;BME280;6016;41.928;25.556;2023-02-02T01:07:29;99147.78;;;5.05;63.56
11912;BME280;6016;41.928;25.556;2023-02-02T01:09:56;99045.31;;;4.48;59.12
11912;BME280;6016;41.928;25.556;2023-02-02T01:12:24;99137.66;;;5.13;63.25
11912;BME280;6016;41.928;25.556;2023-02-02T01:14:51;99149.81;;;5.27;56.90
11912;BME280;6016;41.928;25.556;2023-02-02T01:17:18;99109.94;;;4.98;56.16
11912;BME280;6016;41.928;25.556;2023-02-02T01:19:44;99161.09;;;5.41;62.03
11912;BME280;6016;41.928;25.556;2023-02-02T01:22:11;99150.81;;;5.12;65.86
11912;BME280;6016;41.928;25.556;2023-02-02T01:24:38;99149.16;;;5.24;67.91
11912;BME280;6016;41.928;25.556;2023-02-02T01:27:05;99070.59;;;4.73;59.54
11912;BME280;6016;41.928;25.556;2023-02-02T01:29:33;99136.19;;;5.22;64.27
11912;BME280;6016;41.928;25.556;2023-02-02T01:32:00;99146.34;;;5.40;69.08
11912;BME280;6016;41.928;25.556;2023-02-02T01:34:27;99038.19;;;4.37;66.20
11912;BME280;6016;41.928;25.556;2023-02-02T01:36:54;99148.31;;;5.23;67.74
11912;BME280;6016;41.928;25.556;2023-02-02T01:39:21;99145.25;;;4.90;60.93
11912;BME280;6016;41.928;25.556;2023-02-02T01:41:48;99151.03;;;5.34;70.48
11912;BME280;6016;41.928;25.556;2023-02-02T01:47:25;99153.19;;;5.80;65.77
11912;BME280;6016;41.928;25.556;2023-02-02T01:49:53;99152.56;;;5.89;62.77
11912;BME280;6016;41.928;25.556;2023-02-02T01:52:23;99085.56;;;5.36;58.26
11912;BME280;6016;41.928;25.556;2023-02-02T01:54:55;99073.00;;;5.41;61.88
11912;BME280;6016;41.928;25.556;2023-02-02T01:57:26;99095.69;;;5.54;58.91
11912;BME280;6016;41.928;25.556;2023-02-02T01:59:56;99146.06;;;6.08;62.20
11912;BME280;6016;41.928;25.556;2023-02-02T02:02:26;99141.31;;;6.13;59.24
11912;BME280;6016;41.928;25.556;2023-02-02T02:04:55;99135.75;;;6.17;62.16
11912;BME280;6016;41.928;25.556;2023-02-02T02:07:22;99156.06;;;6.38;59.15
11912;BME280;6016;41.928;25.556;2023-02-02T02:09:49;99158.66;;;6.27;57.79
11912;BME280;6016;41.928;25.556;2023-02-02T02:12:16;99155.59;;;6.33;64.44
11912;BME280;6016;41.928;25.556;2023-02-02T02:14:46;99152.03;;;6.34;62.60
11912;BME280;6016;41.928;25.556;2023-02-02T02:17:42;99093.19;;;5.89;60.81
11912;BME280;6016;41.928;25.556;2023-02-02T02:20:31;99147.56;;;6.23;62.51
11912;BME280;6016;41.928;25.556;2023-02-02T02:23:39;99111.13;;;5.83;58.89
11912;BME280;6016;41.928;25.556;2023-02-02T02:26:55;99152.75;;;6.12;61.12
11912;BME280;6016;41.928;25.556;2023-02-02T02:32:31;99152.63;;;6.13;70.82
11912;BME280;6016;41.928;25.556;2023-02-02T02:35:05;99160.94;;;5.94;65.25
11912;BME280;6016;41.928;25.556;2023-02-02T02:37:40;99155.28;;;5.87;69.39
11912;BME280;6016;41.928;25.556;2023-02-02T02:40:14;99144.84;;;5.74;69.68
11912;BME280;6016;41.928;25.556;2023-02-02T02:42:48;99150.03;;;5.87;70.43
11912;BME280;6016;41.928;25.556;2023-02-02T02:45:17;99156.84;;;5.90;71.64
11912;BME280;6016;41.928;25.556;2023-02-02T02:47:47;99135.41;;;5.72;69.64
11912;BME280;6016;41.928;25.556;2023-02-02T02:50:16;99108.78;;;5.28;64.20
11912;BME280;6016;41.928;25.556;2023-02-02T02:52:44;98858.63;;;3.76;70.89
11912;BME280;6016;41.928;25.556;2023-02-02T02:55:11;99141.75;;;5.30;67.52
11912;BME280;6016;41.928;25.556;2023-02-02T02:57:46;99124.19;;;5.19;68.11
11912;BME280;6016;41.928;25.556;2023-02-02T03:03:11;99174.72;;;6.09;62.92
11912;BME280;6016;41.928;25.556;2023-02-02T03:05:49;99142.16;;;6.13;65.27
11912;BME280;6016;41.928;25.556;2023-02-02T03:08:22;99082.03;;;5.74;61.08
11912;BME280;6016;41.928;25.556;2023-02-02T03:10:51;99128.63;;;6.19;64.37
11912;BME280;6016;41.928;25.556;2023-02-02T03:13:18;99125.38;;;6.16;70.55
11912;BME280;6016;41.928;25.556;2023-02-02T03:15:45;99133.44;;;6.26;63.70
11912;BME280;6016;41.928;25.556;2023-02-02T03:18:15;99094.31;;;5.98;61.10
11912;BME280;6016;41.928;25.556;2023-02-02T03:20:44;99110.78;;;5.87;60.37
11912;BME280;6016;41.928;25.556;2023-02-02T03:23:11;99034.13;;;5.61;62.26
11912;BME280;6016;41.928;25.556;2023-02-02T03:25:38;99044.22;;;5.54;61.94
11912;BME280;6016;41.928;25.556;2023-02-02T03:28:05;99113.63;;;6.22;59.78
11912;BME280;6016;41.928;25.556;2023-02-02T03:30:33;99102.72;;;6.28;59.38
11912;BME280;6016;41.928;25.556;2023-02-02T03:33:00;99133.44;;;6.61;62.72
11912;BME280;6016;41.928;25.556;2023-02-02T03:35:28;99130.97;;;6.71;60.50
11912;BME280;6016;41.928;25.556;2023-02-02T03:37:55;99120.44;;;6.60;59.39
11912;BME280;6016;41.928;25.556;2023-02-02T03:40:22;99040.56;;;6.05;60.34
11912;BME280;6016;41.928;25.556;2023-02-02T03:42:49;99135.34;;;6.59;58.39
11912;BME280;6016;41.928;25.556;2023-02-02T03:45:16;99131.22;;;6.44;57.30
11912;BME280;6016;41.928;25.556;2023-02-02T03:47:43;99018.75;;;5.56;59.97
11912;BME280;6016;41.928;25.556;2023-02-02T03:50:10;99112.66;;;6.23;55.86
11912;BME280;6016;41.928;25.556;2023-02-02T03:52:39;99134.34;;;6.49;53.65
11912;BME280;6016;41.928;25.556;2023-02-02T03:55:06;99128.66;;;6.55;54.19
11912;BME280;6016;41.928;25.556;2023-02-02T03:57:33;99128.94;;;6.64;55.90
11912;BME280;6016;41.928;25.556;2023-02-02T04:00:00;99040.72;;;6.04;59.18
11912;BME280;6016;41.928;25.556;2023-02-02T04:02:27;99089.66;;;6.39;54.36
11912;BME280;6016;41.928;25.556;2023-02-02T04:04:54;99123.91;;;6.60;53.16
11912;BME280;6016;41.928;25.556;2023-02-02T04:07:21;99132.25;;;6.66;54.13
11912;BME280;6016;41.928;25.556;2023-02-02T04:09:49;99139.78;;;6.70;54.85
11912;BME280;6016;41.928;25.556;2023-02-02T04:12:15;99143.59;;;6.66;53.81
11912;BME280;6016;41.928;25.556;2023-02-02T04:14:42;99084.53;;;6.38;53.74
11912;BME280;6016;41.928;25.556;2023-02-02T04:17:09;99132.34;;;6.28;54.80
11912;BME280;6016;41.928;25.556;2023-02-02T04:19:36;99134.47;;;6.23;61.42
11912;BME280;6016;41.928;25.556;2023-02-02T04:22:03;99126.38;;;6.26;58.32
11912;BME280;6016;41.928;25.556;2023-02-02T04:24:30;99135.75;;;6.42;56.05
11912;BME280;6016;41.928;25.556;2023-02-02T04:26:58;99136.41;;;6.08;57.50
11912;BME280;6016;41.928;25.556;2023-02-02T04:29:24;99139.13;;;6.07;58.77
11912;BME280;6016;41.928;25.556;2023-02-02T04:31:51;99103.38;;;5.81;58.44
11912;BME280;6016;41.928;25.556;2023-02-02T04:34:18;98946.47;;;4.81;56.25
11912;BME280;6016;41.928;25.556;2023-02-02T04:36:45;99052.19;;;5.40;58.80
11912;BME280;6016;41.928;25.556;2023-02-02T04:39:12;99142.69;;;6.05;58.91
11912;BME280;6016;41.928;25.556;2023-02-02T04:41:38;99131.00;;;6.23;56.33
11912;BME280;6016;41.928;25.556;2023-02-02T04:44:12;99118.44;;;6.28;60.42
11912;BME280;6016;41.928;25.556;2023-02-02T04:46:39;99134.16;;;6.28;57.58
11912;BME280;6016;41.928;25.556;2023-02-02T04:49:06;99103.47;;;6.17;55.88
11912;BME280;6016;41.928;25.556;2023-02-02T04:51:34;99135.09;;;6.27;56.99
11912;BME280;6016;41.928;25.556;2023-02-02T04:54:01;99119.00;;;6.20;55.02
11912;BME280;6016;41.928;25.556;2023-02-02T04:56:27;99135.69;;;6.30;54.91
11912;BME280;6016;41.928;25.556;2023-02-02T04:58:54;99140.72;;;6.33;52.91
11912;BME280;6016;41.928;25.556;2023-02-02T05:01:23;99136.47;;;6.44;55.97
11912;BME280;6016;41.928;25.556;2023-02-02T05:03:50;99036.78;;;5.48;55.96
11912;BME280;6016;41.928;25.556;2023-02-02T05:06:17;99112.03;;;5.95;60.27
11912;BME280;6016;41.928;25.556;2023-02-02T05:08:45;99140.59;;;6.11;57.87
11912;BME280;6016;41.928;25.556;2023-02-02T05:11:14;99119.06;;;5.81;58.42
11912;BME280;6016;41.928;25.556;2023-02-02T05:13:44;99133.81;;;5.95;58.43
11912;BME280;6016;41.928;25.556;2023-02-02T05:16:11;99146.09;;;6.19;58.15
11912;BME280;6016;41.928;25.556;2023-02-02T05:18:40;99143.22;;;6.35;55.81
11912;BME280;6016;41.928;25.556;2023-02-02T05:21:07;98960.59;;;5.28;55.28
11912;BME280;6016;41.928;25.556;2023-02-02T05:23:34;99019.72;;;5.55;56.94
11912;BME280;6016;41.928;25.556;2023-02-02T05:26:01;99139.97;;;6.31;58.76
11912;BME280;6016;41.928;25.556;2023-02-02T05:28:27;99110.84;;;6.12;59.32
11912;BME280;6016;41.928;25.556;2023-02-02T05:30:54;99151.78;;;6.37;56.67
11912;BME280;6016;41.928;25.556;2023-02-02T05:33:21;99120.38;;;6.13;55.15
11912;BME280;6016;41.928;25.556;2023-02-02T05:35:50;99076.75;;;5.87;56.94
11912;BME280;6016;41.928;25.556;2023-02-02T05:38:17;99149.59;;;6.07;57.86
11912;BME280;6016;41.928;25.556;2023-02-02T05:40:44;99144.56;;;6.16;58.39
11912;BME280;6016;41.928;25.556;2023-02-02T05:43:10;99123.72;;;6.15;57.25
11912;BME280;6016;41.928;25.556;2023-02-02T05:45:37;98984.84;;;5.30;54.83
11912;BME280;6016;41.928;25.556;2023-02-02T05:48:04;99153.84;;;6.21;57.21
11912;BME280;6016;41.928;25.556;2023-02-02T05:50:31;99150.34;;;5.96;57.77
11912;BME280;6016;41.928;25.556;2023-02-02T05:52:59;99150.53;;;6.05;60.21
11912;BME280;6016;41.928;25.556;2023-02-02T05:55:26;99148.84;;;6.17;57.15
11912;BME280;6016;41.928;25.556;2023-02-02T05:57:53;99157.72;;;6.28;57.23
11912;BME280;6016;41.928;25.556;2023-02-02T06:00:20;99114.41;;;6.11;56.06
11912;BME280;6016;41.928;25.556;2023-02-02T06:02:47;99165.84;;;6.36;56.43
11912;BME280;6016;41.928;25.556;2023-02-02T06:05:14;99094.03;;;5.90;55.54
11912;BME280;6016;41.928;25.556;2023-02-02T06:07:41;99165.44;;;6.29;56.64
11912;BME280;6016;41.928;25.556;2023-02-02T06:10:10;99166.34;;;6.41;56.72
11912;BME280;6016;41.928;25.556;2023-02-02T06:12:36;99112.34;;;5.90;55.09
11912;BME280;6016;41.928;25.556;2023-02-02T06:15:04;99179.34;;;7.03;55.00
11912;BME280;6016;41.928;25.556;2023-02-02T06:17:31;99070.78;;;7.95;50.47
11912;BME280;6016;41.928;25.556;2023-02-02T06:19:58;99101.66;;;10.73;46.36
11912;BME280;6016;41.928;25.556;2023-02-02T06:22:25;99162.81;;;13.47;40.78
11912;BME280;6016;41.928;25.556;2023-02-02T06:24:52;99010.06;;;14.05;36.63
11912;BME280;6016;41.928;25.556;2023-02-02T06:27:20;99124.06;;;14.98;35.85
11912;BME280;6016;41.928;25.556;2023-02-02T06:29:47;99174.44;;;13.89;38.15
11912;BME280;6016;41.928;25.556;2023-02-02T06:32:14;99169.63;;;12.14;40.26
11912;BME280;6016;41.928;25.556;2023-02-02T06:34:41;99091.50;;;10.29;42.87
11912;BME280;6016;41.928;25.556;2023-02-02T06:37:08;99194.59;;;10.16;45.13
11912;BME280;6016;41.928;25.556;2023-02-02T06:39:35;99041.09;;;8.91;46.19
11912;BME280;6016;41.928;25.556;2023-02-02T06:42:01;99164.38;;;9.48;46.23
11912;BME280;6016;41.928;25.556;2023-02-02T06:44:30;99194.66;;;9.11;47.66
11912;BME280;6016;41.928;25.556;2023-02-02T06:46:56;99170.25;;;9.31;48.16
11912;BME280;6016;41.928;25.556;2023-02-02T06:49:23;99169.06;;;11.73;43.04
11912;BME280;6016;41.928;25.556;2023-02-02T06:51:50;99187.09;;;14.55;38.35
11912;BME280;6016;41.928;25.556;2023-02-02T06:54:17;99182.22;;;17.16;33.20
11912;BME280;6016;41.928;25.556;2023-02-02T06:56:44;98986.59;;;16.72;31.94
11912;BME280;6016;41.928;25.556;2023-02-02T06:59:11;99188.19;;;19.89;28.82
11912;BME280;6016;41.928;25.556;2023-02-02T07:01:39;99176.72;;;20.58;26.08
11912;BME280;6016;41.928;25.556;2023-02-02T07:04:06;99167.38;;;20.40;26.95
11912;BME280;6016;41.928;25.556;2023-02-02T07:06:33;99205.31;;;17.24;29.44
11912;BME280;6016;41.928;25.556;2023-02-02T07:09:00;99204.09;;;15.85;32.99
11912;BME280;6016;41.928;25.556;2023-02-02T07:11:26;99199.28;;;14.99;34.14
11912;BME280;6016;41.928;25.556;2023-02-02T07:13:53;99148.69;;;14.16;35.74
11912;BME280;6016;41.928;25.556;2023-02-02T07:16:20;99152.56;;;14.63;34.94
11912;BME280;6016;41.928;25.556;2023-02-02T07:18:49;99193.03;;;16.99;31.68
11912;BME280;6016;41.928;25.556;2023-02-02T07:21:17;99158.22;;;18.58;28.81
11912;BME280;6016;41.928;25.556;2023-02-02T07:23:46;99186.03;;;19.36;27.90
11912;BME280;6016;41.928;25.556;2023-02-02T07:26:14;99185.03;;;20.21;26.84
11912;BME280;6016;41.928;25.556;2023-02-02T07:28:42;99198.19;;;19.10;28.35
11912;BME280;6016;41.928;25.556;2023-02-02T07:31:14;99196.25;;;18.23;29.70
11912;BME280;6016;41.928;25.556;2023-02-02T07:33:42;99196.53;;;18.50;29.02
11912;BME280;6016;41.928;25.556;2023-02-02T07:36:12;99185.28;;;18.33;29.75
11912;BME280;6016;41.928;25.556;2023-02-02T07:38:40;99067.34;;;17.11;34.56
11912;BME280;6016;41.928;25.556;2023-02-02T07:41:07;99155.03;;;18.11;33.12
11912;BME280;6016;41.928;25.556;2023-02-02T07:43:34;99182.19;;;19.17;30.93
11912;BME280;6016;41.928;25.556;2023-02-02T07:46:02;99138.78;;;18.71;28.74
11912;BME280;6016;41.928;25.556;2023-02-02T07:48:32;99099.41;;;17.99;33.00
11912;BME280;6016;41.928;25.556;2023-02-02T07:50:59;99195.84;;;17.21;31.25
11912;BME280;6016;41.928;25.556;2023-02-02T07:53:28;99206.03;;;16.71;32.01
11912;BME280;6016;41.928;25.556;2023-02-02T07:56:07;99174.03;;;16.24;33.42
11912;BME280;6016;41.928;25.556;2023-02-02T07:58:34;99162.72;;;16.22;32.69
11912;BME280;6016;41.928;25.556;2023-02-02T08:01:01;99193.31;;;16.58;34.05
11912;BME280;6016;41.928;25.556;2023-02-02T08:03:28;99195.78;;;17.75;35.01
11912;BME280;6016;41.928;25.556;2023-02-02T08:05:55;99069.25;;;18.14;29.44
11912;BME280;6016;41.928;25.556;2023-02-02T08:08:22;99170.13;;;18.40;28.86
11912;BME280;6016;41.928;25.556;2023-02-02T08:10:52;99194.22;;;17.35;30.52
11912;BME280;6016;41.928;25.556;2023-02-02T08:13:19;99192.34;;;17.21;31.01
11912;BME280;6016;41.928;25.556;2023-02-02T08:15:46;99191.63;;;17.27;29.35
11912;BME280;6016;41.928;25.556;2023-02-02T08:18:13;99190.22;;;16.93;32.78
11912;BME280;6016;41.928;25.556;2023-02-02T08:20:40;99178.78;;;15.41;31.56
11912;BME280;6016;41.928;25.556;2023-02-02T08:23:06;99192.25;;;15.39;32.35
11912;BME280;6016;41.928;25.556;2023-02-02T08:25:38;99112.47;;;15.56;30.47
11912;BME280;6016;41.928;25.556;2023-02-02T08:28:07;99176.28;;;17.29;29.98
11912;BME280;6016;41.928;25.556;2023-02-02T08:30:33;99180.91;;;17.65;28.71
11912;BME280;6016;41.928;25.556;2023-02-02T08:33:00;99178.97;;;17.74;28.04
11912;BME280;6016;41.928;25.556;2023-02-02T08:35:27;99102.56;;;16.59;29.71
11912;BME280;6016;41.928;25.556;2023-02-02T08:37:54;99168.56;;;15.69;31.27
11912;BME280;6016;41.928;25.556;2023-02-02T08:40:21;99193.91;;;16.05;33.84
11912;BME280;6016;41.928;25.556;2023-02-02T08:42:52;99136.22;;;15.57;33.09
11912;BME280;6016;41.928;25.556;2023-02-02T08:45:20;99156.56;;;14.67;34.90
11912;BME280;6016;41.928;25.556;2023-02-02T08:47:47;99163.56;;;14.09;38.41
11912;BME280;6016;41.928;25.556;2023-02-02T08:50:15;99155.19;;;13.78;36.28
11912;BME280;6016;41.928;25.556;2023-02-02T08:52:42;99180.09;;;12.88;38.06
11912;BME280;6016;41.928;25.556;2023-02-02T08:55:09;99165.72;;;12.55;38.72
11912;BME280;6016;41.928;25.556;2023-02-02T08:57:36;99133.13;;;12.18;38.50
11912;BME280;6016;41.928;25.556;2023-02-02T09:00:03;99172.72;;;12.82;36.38
11912;BME280;6016;41.928;25.556;2023-02-02T09:02:32;99070.19;;;12.40;36.26
11912;BME280;6016;41.928;25.556;2023-02-02T09:04:59;99175.38;;;13.00;36.60
11912;BME280;6016;41.928;25.556;2023-02-02T09:07:26;99171.16;;;12.71;35.67
11912;BME280;6016;41.928;25.556;2023-02-02T09:09:52;99163.53;;;12.68;36.62
11912;BME280;6016;41.928;25.556;2023-02-02T09:12:22;99168.50;;;12.71;36.58
11912;BME280;6016;41.928;25.556;2023-02-02T09:14:49;99161.19;;;12.47;35.66
11912;BME280;6016;41.928;25.556;2023-02-02T09:17:16;99168.91;;;12.40;36.27
11912;BME280;6016;41.928;25.556;2023-02-02T09:19:44;99168.78;;;12.14;36.31
11912;BME280;6016;41.928;25.556;2023-02-02T09:22:11;99157.34;;;12.13;36.90
11912;BME280;6016;41.928;25.556;2023-02-02T09:24:38;99132.81;;;12.03;36.44
11912;BME280;6016;41.928;25.556;2023-02-02T09:27:04;99108.03;;;11.76;36.58
11912;BME280;6016;41.928;25.556;2023-02-02T09:29:31;99160.69;;;12.15;39.59
11912;BME280;6016;41.928;25.556;2023-02-02T09:31:59;99143.63;;;12.09;37.34
11912;BME280;6016;41.928;25.556;2023-02-02T09:34:26;99146.25;;;12.09;37.62
11912;BME280;6016;41.928;25.556;2023-02-02T09:36:54;99078.78;;;11.77;36.44
11912;BME280;6016;41.928;25.556;2023-02-02T09:39:21;99128.00;;;12.16;36.54
11912;BME280;6016;41.928;25.556;2023-02-02T09:42:04;99152.50;;;12.55;38.82
11912;BME280;6016;41.928;25.556;2023-02-02T09:44:47;99037.06;;;11.99;37.33
11912;BME280;6016;41.928;25.556;2023-02-02T09:47:23;99121.72;;;12.72;36.94
11912;BME280;6016;41.928;25.556;2023-02-02T09:49:57;99141.75;;;12.56;37.18
11912;BME280;6016;41.928;25.556;2023-02-02T09:52:31;98998.84;;;11.75;37.80
11912;BME280;6016;41.928;25.556;2023-02-02T09:55:02;99134.00;;;12.81;35.01
11912;BME280;6016;41.928;25.556;2023-02-02T09:57:35;99133.53;;;12.41;36.77
11912;BME280;6016;41.928;25.556;2023-02-02T10:00:05;99101.38;;;12.36;36.94
11912;BME280;6016;41.928;25.556;2023-02-02T10:02:36;99006.75;;;11.29;35.59
11912;BME280;6016;41.928;25.556;2023-02-02T10:05:08;99107.84;;;12.51;36.44
11912;BME280;6016;41.928;25.556;2023-02-02T10:07:42;99046.38;;;12.03;36.46
11912;BME280;6016;41.928;25.556;2023-02-02T10:10:13;99028.50;;;12.15;39.25
11912;BME280;6016;41.928;25.556;2023-02-02T10:12:46;99101.44;;;13.07;36.83
11912;BME280;6016;41.928;25.556;2023-02-02T10:15:20;99093.91;;;13.20;36.38
11912;BME280;6016;41.928;25.556;2023-02-02T10:17:52;98976.78;;;12.65;39.35
11912;BME280;6016;41.928;25.556;2023-02-02T10:20:29;99090.19;;;13.40;33.43
11912;BME280;6016;41.928;25.556;2023-02-02T10:23:05;99092.84;;;13.40;32.86
11912;BME280;6016;41.928;25.556;2023-02-02T10:25:37;99089.91;;;13.43;34.21
11912;BME280;6016;41.928;25.556;2023-02-02T10:28:15;99019.34;;;13.42;33.95
11912;BME280;6016;41.928;25.556;2023-02-02T10:30:45;98973.56;;;13.15;34.92
11912;BME280;6016;41.928;25.556;2023-02-02T10:33:19;98956.41;;;12.92;33.62
11912;BME280;6016;41.928;25.556;2023-02-02T10:35:52;99027.56;;;13.65;35.56
11912;BME280;6016;41.928;25.556;2023-02-02T10:38:29;99073.59;;;14.32;37.72
11912;BME280;6016;41.928;25.556;2023-02-02T10:41:08;98996.97;;;14.20;33.47
11912;BME280;6016;41.928;25.556;2023-02-02T10:44:02;99072.13;;;14.79;33.05
11912;BME280;6016;41.928;25.556;2023-02-02T10:46:32;99067.81;;;14.37;32.21
11912;BME280;6016;41.928;25.556;2023-02-02T10:49:13;98983.53;;;13.89;33.21
11912;BME280;6016;41.928;25.556;2023-02-02T10:51:40;99003.63;;;14.16;34.14
11912;BME280;6016;41.928;25.556;2023-02-02T10:54:25;99060.16;;;14.67;32.21
11912;BME280;6016;41.928;25.556;2023-02-02T10:56:57;99032.94;;;14.15;32.68
11912;BME280;6016;41.928;25.556;2023-02-02T10:59:29;99054.69;;;14.35;33.72
11912;BME280;6016;41.928;25.556;2023-02-02T11:01:57;99056.66;;;14.25;33.30
11912;BME280;6016;41.928;25.556;2023-02-02T11:04:24;99049.88;;;14.14;35.69
11912;BME280;6016;41.928;25.556;2023-02-02T11:07:08;99047.03;;;14.07;33.56
11912;BME280;6016;41.928;25.556;2023-02-02T11:09:40;99039.75;;;14.09;32.61
11912;BME280;6016;41.928;25.556;2023-02-02T11:12:14;98778.97;;;12.24;31.12
11912;BME280;6016;41.928;25.556;2023-02-02T11:14:46;99006.56;;;13.80;32.65
11912;BME280;6016;41.928;25.556;2023-02-02T11:17:20;99031.97;;;13.48;33.98
11912;BME280;6016;41.928;25.556;2023-02-02T11:19:47;99036.16;;;13.59;33.42
11912;BME280;6016;41.928;25.556;2023-02-02T11:22:30;98879.66;;;12.58;33.83
11912;BME280;6016;41.928;25.556;2023-02-02T11:25:03;99013.31;;;13.23;33.09
11912;BME280;6016;41.928;25.556;2023-02-02T11:27:32;98958.75;;;13.04;34.51
11912;BME280;6016;41.928;25.556;2023-02-02T11:30:10;98986.00;;;13.31;34.02
11912;BME280;6016;41.928;25.556;2023-02-02T11:32:37;98978.25;;;13.37;34.30
11912;BME280;6016;41.928;25.556;2023-02-02T11:35:19;99025.59;;;13.75;35.89
11912;BME280;6016;41.928;25.556;2023-02-02T11:38:08;99017.53;;;13.93;33.66
11912;BME280;6016;41.928;25.556;2023-02-02T11:40:38;99000.91;;;13.75;35.20
11912;BME280;6016;41.928;25.556;2023-02-02T11:43:15;99011.91;;;14.05;34.76
11912;BME280;6016;41.928;25.556;2023-02-02T11:45:44;98897.78;;;13.39;34.23
11912;BME280;6016;41.928;25.556;2023-02-02T11:48:18;98966.63;;;13.73;35.13
11912;BME280;6016;41.928;25.556;2023-02-02T11:50:46;98879.75;;;13.34;33.72
11912;BME280;6016;41.928;25.556;2023-02-02T11:53:21;98904.13;;;13.46;33.54
11912;BME280;6016;41.928;25.556;2023-02-02T11:55:51;98999.97;;;14.17;34.21
11912;BME280;6016;41.928;25.556;2023-02-02T11:58:20;99000.47;;;14.13;33.40
11912;BME280;6016;41.928;25.556;2023-02-02T12:00:53;98882.47;;;13.59;34.49
11912;BME280;6016;41.928;25.556;2023-02-02T12:03:26;98982.03;;;14.44;34.37
11912;BME280;6016;41.928;25.556;2023-02-02T12:05:53;98981.34;;;14.59;34.10
11912;BME280;6016;41.928;25.556;2023-02-02T12:08:21;98818.28;;;13.39;33.05
11912;BME280;6016;41.928;25.556;2023-02-02T12:10:55;98969.94;;;14.50;33.21
11912;BME280;6016;41.928;25.556;2023-02-02T12:13:42;98968.09;;;14.51;33.80
11912;BME280;6016;41.928;25.556;2023-02-02T12:16:37;98919.72;;;14.07;33.83
11912;BME280;6016;41.928;25.556;2023-02-02T12:19:45;98960.47;;;13.89;36.90
11912;BME280;6016;41.928;25.556;2023-02-02T12:22:28;98877.53;;;13.04;35.38
11912;BME280;6016;41.928;25.556;2023-02-02T12:25:26;98799.63;;;12.56;36.91
11912;BME280;6016;41.928;25.556;2023-02-02T12:28:00;98925.97;;;13.48;34.53
11912;BME280;6016;41.928;25.556;2023-02-02T12:30:33;98962.50;;;14.04;37.89
11912;BME280;6016;41.928;25.556;2023-02-02T12:33:12;98911.97;;;13.97;34.85
11912;BME280;6016;41.928;25.556;2023-02-02T12:39:06;98962.81;;;14.26;34.51
11912;BME280;6016;41.928;25.556;2023-02-02T12:41:44;98953.69;;;14.28;33.00
11912;BME280;6016;41.928;25.556;2023-02-02T12:44:20;98879.63;;;13.85;32.57
11912;BME280;6016;41.928;25.556;2023-02-02T12:46:56;98929.31;;;14.25;33.84
11912;BME280;6016;41.928;25.556;2023-02-02T12:52:30;98918.22;;;13.96;35.28
11912;BME280;6016;41.928;25.556;2023-02-02T12:55:16;98900.31;;;13.48;33.42
11912;BME280;6016;41.928;25.556;2023-02-02T12:58:05;98943.81;;;13.37;34.17
11912;BME280;6016;41.928;25.556;2023-02-02T13:00:49;98943.38;;;13.50;37.18
11912;BME280;6016;41.928;25.556;2023-02-02T13:03:29;98888.94;;;13.05;35.16
11912;BME280;6016;41.928;25.556;2023-02-02T13:06:08;98898.81;;;12.94;34.57
11912;BME280;6016;41.928;25.556;2023-02-02T13:08:43;98947.78;;;13.33;37.75
11912;BME280;6016;41.928;25.556;2023-02-02T13:11:18;98733.50;;;11.86;37.82
11912;BME280;6016;41.928;25.556;2023-02-02T13:13:57;98936.25;;;13.00;36.31
11912;BME280;6016;41.928;25.556;2023-02-02T13:16:29;98932.63;;;13.01;35.04
11912;BME280;6016;41.928;25.556;2023-02-02T13:19:01;98834.38;;;12.26;34.86
11912;BME280;6016;41.928;25.556;2023-02-02T13:21:30;98863.72;;;12.41;37.72
11912;BME280;6016;41.928;25.556;2023-02-02T13:24:00;98925.00;;;12.98;37.45
11912;BME280;6016;41.928;25.556;2023-02-02T13:26:31;98920.38;;;13.00;37.49
11912;BME280;6016;41.928;25.556;2023-02-02T13:29:05;98921.88;;;13.02;34.89
11912;BME280;6016;41.928;25.556;2023-02-02T13:31:39;98927.97;;;13.03;36.39
11912;BME280;6016;41.928;25.556;2023-02-02T13:34:34;98920.50;;;12.98;34.86
11912;BME280;6016;41.928;25.556;2023-02-02T13:37:12;98721.00;;;11.62;35.52